Time;durP1;ratioP1;P1;durP2;ratioP2;P2;SDS_P1;SDS_P2;PMS_P1;PMS_P2;Temp;Humidity;BMP_temperature;BMP_pressure;BME280_temperature;BME280_humidity;BME280_pressure;Samples;Min_cycle;Max_cycle;Signal;HPM_P1;HPM_P2
2022/10/24 00:00:42;;;;;;;10.93;2.40;;;15.80;99.90;;;;;;5095716;28;20023;-81
2022/10/24 00:03:08;;;;;;;8.07;2.38;;;15.80;99.90;;;;;;5096580;28;20031;-83
2022/10/24 00:05:34;;;;;;;9.48;2.30;;;15.70;99.90;;;;;;5095964;28;20040;-81
2022/10/24 00:07:59;;;;;;;7.72;2.30;;;15.70;99.90;;;;;;5096537;28;20052;-82
2022/10/24 00:10:25;;;;;;;11.07;2.40;;;15.80;99.90;;;;;;5087379;28;20036;-81
2022/10/24 00:12:53;;;;;;;13.63;2.00;;;15.70;99.90;;;;;;5075729;28;20067;-82
2022/10/24 00:15:19;;;;;;;7.90;2.38;;;15.70;99.90;;;;;;5075521;28;20028;-80
2022/10/24 00:17:45;;;;;;;7.47;1.88;;;15.80;99.90;;;;;;5082241;28;20392;-81
2022/10/24 00:20:11;;;;;;;8.02;1.88;;;15.80;99.90;;;;;;5095720;28;20049;-81
2022/10/24 00:22:36;;;;;;;7.60;2.05;;;15.90;99.90;;;;;;5095344;28;20136;-82
2022/10/24 00:25:02;;;;;;;6.05;1.90;;;16.00;99.90;;;;;;5087894;28;20024;-79
2022/10/24 00:27:28;;;;;;;7.28;1.88;;;15.90;99.90;;;;;;5074483;28;20024;-78
2022/10/24 00:29:53;;;;;;;10.15;1.92;;;16.00;99.90;;;;;;5090604;28;20452;-78
2022/10/24 00:32:19;;;;;;;4.47;2.08;;;15.90;99.90;;;;;;5085781;28;20035;-83
2022/10/24 00:34:45;;;;;;;5.05;2.13;;;15.90;99.90;;;;;;5095905;28;20019;-85
2022/10/24 00:37:10;;;;;;;8.10;1.88;;;16.00;99.90;;;;;;5096253;28;20027;-85
2022/10/24 00:39:36;;;;;;;7.15;1.58;;;16.00;99.90;;;;;;5095294;28;20393;-79
2022/10/24 00:42:02;;;;;;;8.82;1.70;;;16.00;99.90;;;;;;5096001;28;20023;-79
2022/10/24 00:44:30;;;;;;;6.35;1.83;;;16.10;99.90;;;;;;5079112;28;20031;-84
2022/10/24 00:47:22;;;;;;;5.45;1.40;;;16.10;99.90;;;;;;5089521;28;20469;-85
2022/10/24 00:49:59;;;;;;;6.30;1.85;;;16.10;99.90;;;;;;5095389;28;20024;-83
2022/10/24 00:52:27;;;;;;;6.07;1.83;;;16.10;99.90;;;;;;5084328;28;20046;-80
2022/10/24 00:54:55;;;;;;;3.95;1.63;;;16.10;99.90;;;;;;5093599;28;20024;-80
2022/10/24 00:57:50;;;;;;;9.07;2.20;;;16.10;99.90;;;;;;5093113;28;20054;-80
2022/10/24 01:00:25;;;;;;;6.50;1.70;;;16.10;99.90;;;;;;5092319;28;20040;-82
2022/10/24 01:02:51;;;;;;;4.57;1.73;;;16.10;99.90;;;;;;5095950;28;20080;-82
2022/10/24 01:05:18;;;;;;;8.30;2.40;;;16.10;99.90;;;;;;5085778;28;20032;-84
2022/10/24 01:07:57;;;;;;;7.95;1.90;;;16.10;99.90;;;;;;5075327;28;20778;-83
2022/10/24 01:10:31;;;;;;;6.85;1.42;;;16.10;99.90;;;;;;5081945;28;20054;-81
2022/10/24 01:13:18;;;;;;;8.30;2.47;;;16.10;99.90;;;;;;5096255;28;20024;-83
2022/10/24 01:16:10;;;;;;;5.35;1.58;;;16.10;99.90;;;;;;5094979;28;20028;-83
2022/10/24 01:18:38;;;;;;;6.40;1.52;;;16.10;99.90;;;;;;5088953;28;20117;-82
2022/10/24 01:21:13;;;;;;;5.82;1.73;;;16.10;99.90;;;;;;5095399;28;20032;-82
2022/10/24 01:23:38;;;;;;;6.60;1.58;;;16.10;99.90;;;;;;5112269;28;20028;-84
2022/10/24 01:26:12;;;;;;;13.82;2.05;;;16.20;99.90;;;;;;5095206;28;20089;-83
2022/10/24 01:29:02;;;;;;;6.40;1.73;;;16.20;99.90;;;;;;5089808;28;20051;-85
2022/10/24 01:31:38;;;;;;;7.53;1.33;;;16.20;99.90;;;;;;5092383;28;20376;-85
2022/10/24 01:34:14;;;;;;;7.80;1.52;;;16.10;99.90;;;;;;5092727;28;20063;-84
2022/10/24 01:37:00;;;;;;;8.63;2.17;;;16.00;99.90;;;;;;5088047;28;20090;-82
2022/10/24 01:39:31;;;;;;;9.80;1.63;;;15.90;99.90;;;;;;5091617;28;20067;-81
2022/10/24 01:41:57;;;;;;;;;;;15.80;99.90;;;;;;5092640;28;20039;-80
2022/10/24 01:44:28;;;;;;;7.45;1.70;;;15.80;99.90;;;;;;5092026;28;19904;-82
2022/10/24 01:46:59;;;;;;;8.60;2.03;;;15.70;99.90;;;;;;5091883;28;20027;-80
2022/10/24 01:49:30;;;;;;;5.10;1.60;;;15.70;99.90;;;;;;5091386;28;20071;-80
2022/10/24 01:52:00;;;;;;;5.78;1.70;;;15.70;99.90;;;;;;5091552;28;20087;-80
2022/10/24 01:54:26;;;;;;;10.93;1.77;;;15.60;99.90;;;;;;5091891;28;20544;-79
2022/10/24 01:56:52;;;;;;;6.10;1.92;;;15.60;99.90;;;;;;5091984;28;20377;-79
2022/10/24 01:59:27;;;;;;;10.38;1.92;;;15.60;99.90;;;;;;5087087;28;20025;-83
2022/10/24 02:02:18;;;;;;;6.25;1.50;;;15.60;99.90;;;;;;5094877;28;20028;-82
2022/10/24 02:05:06;;;;;;;7.43;1.80;;;15.60;99.90;;;;;;5095780;28;20058;-83
2022/10/24 02:07:32;;;;;;;11.55;1.80;;;15.50;99.90;;;;;;5079719;28;20068;-81
2022/10/24 02:10:08;;;;;;;6.68;1.70;;;15.60;99.90;;;;;;5075647;28;20021;-82
2022/10/24 02:12:38;;;;;;;8.57;1.70;;;15.50;99.90;;;;;;5075142;28;20052;-81
2022/10/24 02:15:29;;;;;;;9.60;1.90;;;15.40;99.90;;;;;;5075056;28;20029;-81
2022/10/24 02:17:56;;;;;;;4.17;1.33;;;15.40;99.90;;;;;;5065684;28;20036;-82
2022/10/24 02:20:48;;;;;;;7.43;1.80;;;15.30;99.90;;;;;;5075126;28;20268;-82
2022/10/24 02:23:45;;;;;;;7.43;1.50;;;15.40;99.90;;;;;;5074785;28;20029;-82
2022/10/24 02:26:19;;;;;;;5.45;1.48;;;15.30;99.90;;;;;;5037330;28;20481;-82
2022/10/24 02:28:47;;;;;;;9.23;2.13;;;15.20;99.90;;;;;;5074002;28;20037;-82
2022/10/24 02:31:20;;;;;;;8.60;2.00;;;15.20;99.90;;;;;;5077458;28;20103;-82
2022/10/24 02:33:48;;;;;;;6.63;2.17;;;15.20;99.90;;;;;;5095775;28;20016;-82
2022/10/24 02:36:17;;;;;;;7.60;1.80;;;15.10;99.90;;;;;;5094086;28;20118;-82
2022/10/24 02:38:46;;;;;;;4.35;1.63;;;15.10;99.90;;;;;;5094331;28;20028;-82
2022/10/24 02:41:17;;;;;;;5.45;1.30;;;15.10;99.90;;;;;;5093466;28;20036;-82
2022/10/24 02:43:45;;;;;;;3.42;1.27;;;15.10;99.90;;;;;;5094484;28;20068;-82
2022/10/24 02:46:14;;;;;;;3.60;1.50;;;15.10;99.90;;;;;;5095207;28;20103;-82
2022/10/24 02:48:44;;;;;;;9.70;1.60;;;15.10;99.90;;;;;;5094532;28;20024;-79
2022/10/24 02:51:11;;;;;;;12.20;2.00;;;15.10;99.90;;;;;;5095065;28;20031;-81
2022/10/24 02:53:38;;;;;;;3.83;1.42;;;15.10;99.90;;;;;;5094421;28;20118;-81
2022/10/24 02:56:04;;;;;;;6.22;1.63;;;15.20;99.90;;;;;;5094706;28;20084;-80
2022/10/24 02:58:30;;;;;;;9.10;1.60;;;15.20;99.90;;;;;;5095356;28;20161;-81
2022/10/24 03:00:55;;;;;;;10.00;1.70;;;15.20;99.90;;;;;;5094711;28;20084;-81
2022/10/24 03:03:21;;;;;;;4.63;1.50;;;15.20;99.90;;;;;;5094747;28;20020;-81
2022/10/24 03:05:47;;;;;;;10.50;1.70;;;15.20;99.90;;;;;;5095309;28;20107;-81
2022/10/24 03:08:13;;;;;;;8.02;2.00;;;15.20;99.90;;;;;;5094632;28;20036;-83
2022/10/24 03:10:38;;;;;;;5.95;1.48;;;15.20;99.90;;;;;;5095348;28;20161;-83
2022/10/24 03:13:04;;;;;;;8.02;1.73;;;15.20;99.90;;;;;;5083578;28;20521;-83
2022/10/24 03:15:30;;;;;;;8.98;1.75;;;15.20;99.90;;;;;;5074017;28;20409;-82
2022/10/24 03:17:55;;;;;;;9.30;1.60;;;15.20;99.90;;;;;;5074265;28;20029;-83
2022/10/24 03:20:21;;;;;;;5.05;1.83;;;15.20;99.90;;;;;;5075298;28;20124;-83
2022/10/24 03:22:46;;;;;;;8.38;2.03;;;15.20;99.90;;;;;;5074550;28;20028;-83
2022/10/24 03:25:12;;;;;;;9.45;1.80;;;15.20;99.90;;;;;;5074090;28;20028;-84
2022/10/24 03:27:38;;;;;;;12.05;3.17;;;15.20;99.90;;;;;;5075849;28;20085;-83
2022/10/24 03:30:04;;;;;;;6.45;1.77;;;15.20;99.90;;;;;;5077326;28;20028;-82
2022/10/24 03:32:30;;;;;;;8.55;1.75;;;15.20;99.90;;;;;;5076660;28;20095;-81
2022/10/24 03:34:55;;;;;;;6.22;2.33;;;15.20;99.90;;;;;;5077276;28;20468;-82
2022/10/24 03:37:21;;;;;;;4.78;2.13;;;15.30;99.90;;;;;;5077360;28;20362;-83
2022/10/24 03:39:46;;;;;;;6.90;2.13;;;15.30;99.90;;;;;;5076896;28;20035;-82
2022/10/24 03:42:12;;;;;;;6.68;2.15;;;15.20;99.90;;;;;;5077024;28;20067;-83
2022/10/24 03:44:38;;;;;;;10.10;1.75;;;15.30;99.90;;;;;;5076820;28;20020;-83
2022/10/24 03:47:03;;;;;;;11.77;1.83;;;15.20;99.90;;;;;;5077138;28;20024;-83
2022/10/24 03:49:29;;;;;;;8.77;1.65;;;15.30;99.90;;;;;;5076708;28;20034;-81
2022/10/24 03:51:54;;;;;;;11.27;1.92;;;15.30;99.90;;;;;;5095039;28;20031;-82
2022/10/24 03:54:20;;;;;;;5.07;1.73;;;15.20;99.90;;;;;;5077119;28;20070;-82
2022/10/24 03:56:49;;;;;;;8.25;1.73;;;15.20;99.90;;;;;;5075856;28;20021;-82
2022/10/24 03:59:15;;;;;;;7.60;1.90;;;15.30;99.90;;;;;;5094484;28;20024;-82
2022/10/24 04:01:41;;;;;;;6.93;1.85;;;15.30;99.90;;;;;;5094339;28;20035;-82
2022/10/24 04:04:06;;;;;;;6.85;1.80;;;15.20;99.90;;;;;;5076968;28;20024;-81
2022/10/24 04:06:32;;;;;;;4.32;1.70;;;15.20;99.90;;;;;;5076187;28;20123;-82
2022/10/24 04:08:58;;;;;;;8.93;2.00;;;15.20;99.90;;;;;;5094297;28;20031;-83
2022/10/24 04:11:24;;;;;;;7.57;1.85;;;15.20;99.90;;;;;;5076826;28;20027;-83
2022/10/24 04:13:51;;;;;;;8.10;2.15;;;15.10;99.90;;;;;;5076356;28;20020;-82
2022/10/24 04:16:17;;;;;;;10.10;2.22;;;15.10;99.90;;;;;;5076613;28;20188;-82
2022/10/24 04:18:43;;;;;;;7.38;1.70;;;15.10;99.90;;;;;;5076096;28;20369;-82
2022/10/24 04:21:08;;;;;;;7.57;2.03;;;15.10;99.90;;;;;;5076406;28;20119;-82
2022/10/24 04:23:39;;;;;;;8.27;1.92;;;15.10;99.90;;;;;;5075282;28;20119;-82
2022/10/24 04:26:06;;;;;;;9.70;2.03;;;15.00;99.90;;;;;;5076631;28;20021;-82
2022/10/24 04:28:32;;;;;;;8.20;2.25;;;15.00;99.90;;;;;;5075381;28;20052;-82
2022/10/24 04:30:58;;;;;;;8.02;1.98;;;15.00;99.90;;;;;;5076076;28;20119;-82
2022/10/24 04:33:23;;;;;;;5.90;2.03;;;15.00;99.90;;;;;;5094451;28;20035;-82
2022/10/24 04:35:50;;;;;;;9.95;2.55;;;15.00;99.90;;;;;;5075568;28;20028;-82
2022/10/24 04:38:16;;;;;;;6.18;1.80;;;15.00;99.90;;;;;;5075959;28;20032;-83
2022/10/24 04:40:50;;;;;;;11.57;1.90;;;15.00;99.90;;;;;;5075740;28;20093;-82
2022/10/24 04:43:17;;;;;;;4.90;1.52;;;15.00;99.90;;;;;;5076142;28;20050;-83
2022/10/24 04:45:42;;;;;;;6.60;2.03;;;15.00;99.90;;;;;;5093549;28;20021;-85
2022/10/24 04:48:08;;;;;;;8.93;1.92;;;15.10;99.90;;;;;;5094031;28;20072;-83
2022/10/24 04:50:34;;;;;;;9.40;3.42;;;15.10;99.90;;;;;;5093623;28;20047;-82
2022/10/24 04:53:00;;;;;;;12.57;3.00;;;15.10;99.90;;;;;;5084145;28;20461;-82
2022/10/24 04:55:27;;;;;;;8.05;2.05;;;15.10;99.90;;;;;;5096606;28;20023;-83
2022/10/24 04:57:52;;;;;;;9.10;1.90;;;15.20;99.90;;;;;;5095591;28;20065;-83
2022/10/24 05:00:18;;;;;;;7.80;2.08;;;15.20;99.90;;;;;;5096285;28;20084;-83
2022/10/24 05:02:44;;;;;;;7.88;1.90;;;15.20;99.90;;;;;;5113611;28;20099;-84
2022/10/24 05:05:09;;;;;;;6.88;1.85;;;15.40;99.90;;;;;;5114355;28;20524;-82
2022/10/24 05:07:35;;;;;;;9.85;1.95;;;15.50;99.90;;;;;;5113694;28;20030;-82
2022/10/24 05:10:02;;;;;;;7.13;1.70;;;15.50;99.90;;;;;;5113808;28;20024;-82
2022/10/24 05:12:28;;;;;;;15.93;1.92;;;15.50;99.90;;;;;;5095795;28;20074;-82
2022/10/24 05:14:53;;;;;;;7.13;1.92;;;15.50;99.90;;;;;;5095428;28;20536;-82
2022/10/24 05:17:19;;;;;;;8.02;1.77;;;15.50;99.90;;;;;;5096054;28;20027;-83
2022/10/24 05:19:44;;;;;;;11.25;1.90;;;15.50;99.90;;;;;;5095591;28;20080;-83
2022/10/24 05:22:10;;;;;;;11.85;2.15;;;15.50;99.90;;;;;;5095954;28;20032;-83
2022/10/24 05:24:35;;;;;;;8.88;1.65;;;15.50;99.90;;;;;;5095856;28;20030;-81
2022/10/24 05:27:01;;;;;;;6.47;2.03;;;15.50;99.90;;;;;;5095965;28;20023;-82
2022/10/24 05:29:27;;;;;;;12.65;2.95;;;15.60;99.90;;;;;;5095884;28;20397;-82
2022/10/24 05:31:52;;;;;;;9.63;2.53;;;15.60;99.90;;;;;;5113531;28;20039;-83
2022/10/24 05:34:18;;;;;;;10.90;2.45;;;15.60;99.90;;;;;;5095833;28;20024;-81
2022/10/24 05:36:43;;;;;;;9.90;2.25;;;15.60;99.90;;;;;;5098474;28;20059;-81
2022/10/24 05:39:09;;;;;;;8.68;2.33;;;15.60;99.90;;;;;;5099760;28;20034;-82
2022/10/24 05:41:35;;;;;;;7.45;2.10;;;15.70;99.90;;;;;;5117809;28;20491;-81
2022/10/24 05:44:00;;;;;;;10.80;2.47;;;15.70;99.90;;;;;;5099283;28;20059;-82
2022/10/24 05:46:26;;;;;;;10.00;2.55;;;15.70;99.90;;;;;;5099531;28;20020;-82
2022/10/24 05:48:51;;;;;;;11.13;3.00;;;15.80;99.90;;;;;;5098833;28;20085;-82
2022/10/24 05:51:17;;;;;;;7.45;2.20;;;15.80;99.90;;;;;;5099419;28;20024;-82
2022/10/24 05:53:43;;;;;;;13.07;2.72;;;15.90;99.90;;;;;;5098775;28;20035;-81
2022/10/24 05:56:09;;;;;;;11.65;2.78;;;15.90;99.90;;;;;;5099195;28;20028;-83
2022/10/24 05:58:34;;;;;;;15.63;2.42;;;15.90;99.90;;;;;;5099344;28;20051;-83
2022/10/24 06:01:00;;;;;;;14.13;2.80;;;16.00;99.90;;;;;;5098894;28;20110;-83
2022/10/24 06:03:25;;;;;;;14.30;2.88;;;16.00;99.90;;;;;;5099399;28;20474;-83
2022/10/24 06:05:51;;;;;;;11.32;2.30;;;16.10;99.90;;;;;;5116855;28;20047;-83
2022/10/24 06:08:17;;;;;;;6.93;2.40;;;16.10;99.90;;;;;;5117089;28;20023;-82
2022/10/24 06:10:47;;;;;;;6.35;2.10;;;16.10;99.90;;;;;;5116966;28;20030;-82
2022/10/24 06:13:13;;;;;;;9.52;1.83;;;16.10;99.90;;;;;;5099186;28;20023;-83
2022/10/24 06:15:43;;;;;;;12.70;2.78;;;16.10;99.90;;;;;;5098989;28;20092;-81
2022/10/24 06:18:09;;;;;;;10.20;2.03;;;16.10;99.90;;;;;;5099517;28;20028;-83
2022/10/24 06:20:36;;;;;;;7.72;2.15;;;16.10;99.90;;;;;;5099083;28;20115;-83
2022/10/24 06:23:02;;;;;;;9.80;2.80;;;16.00;99.90;;;;;;5098686;28;20032;-83
2022/10/24 06:25:28;;;;;;;7.90;2.42;;;16.00;99.90;;;;;;5099159;28;20081;-83
2022/10/24 06:27:53;;;;;;;10.43;2.88;;;16.00;99.90;;;;;;5098157;28;20191;-83
2022/10/24 06:30:19;;;;;;;9.02;2.65;;;16.00;99.90;;;;;;5116848;28;20027;-84
2022/10/24 06:32:44;;;;;;;12.10;2.20;;;16.00;99.90;;;;;;5116059;28;20027;-84
2022/10/24 06:35:12;;;;;;;8.75;2.30;;;16.00;99.90;;;;;;5098710;28;20376;-84
2022/10/24 06:37:38;;;;;;;9.73;2.10;;;16.00;99.90;;;;;;5103184;28;20365;-83
2022/10/24 06:40:04;;;;;;;12.77;2.47;;;15.90;99.90;;;;;;5096473;28;20533;-84
2022/10/24 06:42:30;;;;;;;8.00;2.50;;;15.90;99.90;;;;;;5078685;28;20064;-85
2022/10/24 06:44:55;;;;;;;8.63;2.63;;;15.90;99.90;;;;;;5077890;28;20111;-85
2022/10/24 06:47:21;;;;;;;10.10;2.08;;;15.90;99.90;;;;;;5076899;28;20055;-84
2022/10/24 06:49:46;;;;;;;8.50;2.50;;;15.90;99.90;;;;;;5077825;28;20085;-84
2022/10/24 06:52:12;;;;;;;8.50;1.90;;;15.90;99.90;;;;;;5095856;28;20094;-84
2022/10/24 06:54:38;;;;;;;9.73;1.90;;;16.00;99.90;;;;;;5078302;28;20115;-84
2022/10/24 06:57:04;;;;;;;8.43;2.17;;;16.10;99.90;;;;;;5077871;28;20042;-84
2022/10/24 06:59:29;;;;;;;8.65;1.58;;;16.20;99.90;;;;;;5096048;28;20032;-86
2022/10/24 07:01:55;;;;;;;4.55;1.58;;;16.20;99.90;;;;;;5077849;28;20056;-84
2022/10/24 07:04:21;;;;;;;9.25;1.88;;;16.30;99.90;;;;;;5077990;28;20024;-86
2022/10/24 07:06:48;;;;;;;6.97;1.63;;;16.30;99.90;;;;;;5077452;28;20115;-84
2022/10/24 07:09:13;;;;;;;4.40;1.40;;;16.30;99.90;;;;;;5077888;28;20024;-88
2022/10/24 07:11:39;;;;;;;3.25;1.55;;;16.40;99.90;;;;;;5095960;28;20411;-84
2022/10/24 07:14:05;;;;;;;4.65;1.58;;;16.30;99.90;;;;;;5077607;28;20032;-85
2022/10/24 07:16:31;;;;;;;4.65;1.42;;;16.30;99.90;;;;;;5095568;28;20035;-85
2022/10/24 07:18:56;;;;;;;3.05;1.48;;;16.40;99.90;;;;;;5077102;28;20024;-84
2022/10/24 07:21:24;;;;;;;7.70;1.30;;;16.40;99.90;;;;;;5077781;28;20024;-85
2022/10/24 07:23:51;;;;;;;5.38;1.55;;;16.40;99.90;;;;;;5077559;28;20031;-84
2022/10/24 07:26:19;;;;;;;5.03;1.65;;;16.40;99.90;;;;;;5097719;28;20030;-85
2022/10/24 07:28:46;;;;;;;6.03;1.48;;;16.40;99.90;;;;;;5097115;28;20055;-84
2022/10/24 07:31:22;;;;;;;5.68;1.38;;;16.50;99.90;;;;;;5115476;28;20080;-84
2022/10/24 07:33:48;;;;;;;8.80;1.80;;;16.50;99.90;;;;;;5097053;28;20055;-84
2022/10/24 07:36:18;;;;;;;4.07;1.30;;;16.50;99.90;;;;;;5097683;28;20108;-85
2022/10/24 07:38:45;;;;;;;7.38;1.50;;;16.60;99.90;;;;;;5115047;28;20106;-83
2022/10/24 07:41:10;;;;;;;4.70;1.60;;;16.60;99.90;;;;;;5115529;28;20457;-84
2022/10/24 07:43:36;;;;;;;6.07;2.00;;;16.70;99.90;;;;;;5097282;28;20053;-84
2022/10/24 07:46:11;;;;;;;4.18;1.40;;;16.70;99.90;;;;;;5096825;28;20089;-84
2022/10/24 07:48:37;;;;;;;5.68;1.55;;;16.70;99.90;;;;;;5097468;28;20059;-84
2022/10/24 07:51:08;;;;;;;5.13;1.83;;;16.70;99.90;;;;;;5096376;28;20467;-84
2022/10/24 07:53:34;;;;;;;5.05;1.20;;;16.80;99.90;;;;;;5115242;28;20024;-84
2022/10/24 07:56:01;;;;;;;6.53;1.58;;;16.70;99.90;;;;;;5096569;28;20032;-85
2022/10/24 07:58:27;;;;;;;2.58;1.13;;;16.80;99.90;;;;;;5097029;28;20058;-83
2022/10/24 08:00:53;;;;;;;6.60;1.40;;;16.80;99.90;;;;;;5096463;28;20107;-84
2022/10/24 08:03:19;;;;;;;5.53;1.55;;;16.80;99.90;;;;;;5115182;28;20130;-84
2022/10/24 08:05:45;;;;;;;2.83;1.20;;;16.80;99.90;;;;;;5096485;28;20027;-83
2022/10/24 08:08:10;;;;;;;4.15;1.25;;;16.80;99.90;;;;;;5096649;28;20039;-84
2022/10/24 08:10:37;;;;;;;5.38;1.20;;;16.90;99.90;;;;;;5096936;28;20020;-85
2022/10/24 08:13:03;;;;;;;2.80;1.20;;;16.90;99.90;;;;;;5096020;28;20016;-83
2022/10/24 08:15:29;;;;;;;6.53;1.58;;;16.90;99.90;;;;;;5096919;28;20121;-84
2022/10/24 08:17:54;;;;;;;4.43;1.20;;;16.90;99.90;;;;;;5096373;28;20066;-84
2022/10/24 08:20:20;;;;;;;5.85;1.45;;;16.90;99.90;;;;;;5097140;28;20028;-84
2022/10/24 08:22:46;;;;;;;6.55;1.63;;;16.90;99.90;;;;;;5096736;28;20032;-81
2022/10/24 08:25:13;;;;;;;4.97;1.50;;;16.90;99.90;;;;;;5096622;28;20430;-83
2022/10/24 08:27:39;;;;;;;3.67;1.48;;;16.90;99.90;;;;;;5096436;28;20023;-84
2022/10/24 08:30:06;;;;;;;4.78;1.50;;;16.90;99.90;;;;;;5095886;28;20087;-84
2022/10/24 08:32:33;;;;;;;6.63;1.50;;;16.90;99.90;;;;;;5096268;28;20035;-87
2022/10/24 08:34:59;;;;;;;2.20;1.05;;;16.90;99.90;;;;;;5095816;28;20035;-86
2022/10/24 08:37:24;;;;;;;5.97;1.10;;;17.00;99.90;;;;;;5096657;28;20028;-83
2022/10/24 08:39:54;;;;;;;6.03;1.70;;;17.00;99.90;;;;;;5095957;28;20497;-84
2022/10/24 08:42:21;;;;;;;4.35;1.20;;;17.10;99.90;;;;;;5096347;28;20042;-84
2022/10/24 08:44:46;;;;;;;6.38;1.45;;;17.10;99.90;;;;;;5096292;28;20027;-83
2022/10/24 08:47:34;;;;;;;4.93;1.70;;;17.20;99.90;;;;;;5096150;28;20024;-84
2022/10/24 08:50:32;;;;;;;7.65;1.90;;;17.20;99.90;;;;;;5096128;28;20051;-85
2022/10/24 08:53:11;;;;;;;6.70;1.40;;;17.20;99.90;;;;;;5101487;28;20430;-84
2022/10/24 08:55:45;;;;;;;3.85;1.52;;;17.20;99.90;;;;;;5076027;28;20545;-87
2022/10/24 08:58:16;;;;;;;8.75;1.63;;;17.10;99.90;;;;;;5075712;28;20032;-85
2022/10/24 09:00:44;;;;;;;4.47;1.13;;;17.10;99.90;;;;;;5094101;28;20118;-83
2022/10/24 09:03:20;;;;;;;9.90;1.48;;;17.10;99.90;;;;;;5075432;28;20024;-86
2022/10/24 09:05:56;;;;;;;5.38;1.38;;;17.10;99.90;;;;;;5078340;28;20028;-84
2022/10/24 09:08:34;;;;;;;5.90;1.20;;;17.10;99.90;;;;;;5080100;28;20528;-81
2022/10/24 09:11:02;;;;;;;8.10;1.90;;;17.10;99.90;;;;;;5077190;28;20024;-85
2022/10/24 09:13:29;;;;;;;2.92;1.02;;;17.00;99.90;;;;;;5111625;28;20027;-78
2022/10/24 09:15:56;;;;;;;5.93;1.30;;;17.10;99.90;;;;;;5098470;28;20353;-85
2022/10/24 09:18:26;;;;;;;5.25;1.63;;;17.10;99.90;;;;;;5099682;28;20558;-89
2022/10/24 09:20:53;;;;;;;5.03;1.50;;;17.00;99.90;;;;;;5099942;28;20392;-88
2022/10/24 09:23:21;;;;;;;6.38;1.30;;;17.00;99.90;;;;;;5117118;28;20066;-82
2022/10/24 09:25:50;;;;;;;5.13;1.67;;;17.00;99.90;;;;;;5101232;28;20384;-82
2022/10/24 09:28:17;;;;;;;6.15;1.90;;;17.00;99.90;;;;;;5117611;28;20070;-82
2022/10/24 09:30:43;;;;;;;5.15;1.70;;;17.10;99.90;;;;;;5100033;28;20461;-82
2022/10/24 09:33:16;;;;;;;5.63;1.95;;;17.10;99.90;;;;;;5099537;28;20158;-82
2022/10/24 09:35:42;;;;;;;7.43;2.38;;;17.10;99.90;;;;;;5099363;28;20028;-83
2022/10/24 09:38:26;;;;;;;15.70;3.70;;;17.20;99.90;;;;;;5098649;28;20472;-82
2022/10/24 09:40:59;;;;;;;6.80;2.28;;;17.20;99.90;;;;;;5091540;28;20027;-83
2022/10/24 09:43:30;;;;;;;11.05;2.33;;;17.30;99.90;;;;;;5099583;28;20487;-82
2022/10/24 09:46:18;;;;;;;4.32;1.40;;;17.30;99.90;;;;;;5103739;28;20529;-81
2022/10/24 09:49:03;;;;;;;3.45;1.10;;;17.40;99.90;;;;;;5090830;28;20552;-84
2022/10/24 09:51:46;;;;;;;5.22;1.20;;;17.50;99.90;;;;;;5117292;28;20038;-83
2022/10/24 09:54:18;;;;;;;8.13;1.70;;;17.60;99.90;;;;;;5098351;28;20034;-82
2022/10/24 09:56:45;;;;;;;4.97;1.70;;;17.60;99.90;;;;;;5116996;28;20376;-82
2022/10/24 09:59:34;;;;;;;7.32;1.60;;;17.70;99.90;;;;;;5116734;28;20067;-83
2022/10/24 10:02:09;;;;;;;6.85;1.40;;;17.70;99.90;;;;;;5112814;28;20019;-81
2022/10/24 10:04:38;;;;;;;7.80;1.50;;;17.80;99.90;;;;;;5094851;28;20031;-82
2022/10/24 10:07:24;;;;;;;6.20;1.40;;;17.80;99.90;;;;;;5086800;28;20055;-83
2022/10/24 10:09:56;;;;;;;8.23;2.05;;;17.90;99.90;;;;;;5092842;28;20032;-81
2022/10/24 10:12:34;;;;;;;5.78;1.38;;;17.90;99.90;;;;;;5085150;28;20035;-82
2022/10/24 10:15:18;;;;;;;8.82;1.95;;;17.90;99.90;;;;;;5115095;28;20020;-83
2022/10/24 10:17:55;;;;;;;6.07;1.55;;;18.00;99.90;;;;;;5116126;28;20020;-84
2022/10/24 10:20:36;;;;;;;5.78;1.70;;;18.00;99.90;;;;;;5094116;28;20122;-83
2022/10/24 10:23:33;;;;;;;5.90;1.90;;;18.10;99.90;;;;;;5085589;28;20073;-84
2022/10/24 10:26:26;;;;;;;3.38;1.52;;;18.10;99.90;;;;;;5080645;28;20062;-84
2022/10/24 10:28:57;;;;;;;6.75;1.70;;;18.10;99.90;;;;;;5104886;28;20074;-82
2022/10/24 10:31:39;;;;;;;4.07;1.52;;;18.00;99.90;;;;;;5081011;28;20047;-82
2022/10/24 10:34:40;;;;;;;7.20;1.60;;;17.90;99.90;;;;;;5097970;28;20027;-82
2022/10/24 10:37:40;;;;;;;10.05;1.73;;;17.90;99.90;;;;;;5084572;28;20044;-83
2022/10/24 10:40:30;;;;;;;7.75;1.65;;;17.90;99.90;;;;;;5104555;28;20092;-84
2022/10/24 10:43:26;;;;;;;9.90;2.45;;;17.90;99.90;;;;;;5081999;28;20039;-84
2022/10/24 10:46:20;;;;;;;4.97;1.60;;;18.00;99.90;;;;;;5089046;28;20028;-82
2022/10/24 10:48:57;;;;;;;12.52;2.67;;;18.20;99.90;;;;;;5098285;28;20031;-82
2022/10/24 10:51:36;;;;;;;10.23;2.10;;;18.30;99.90;;;;;;5085177;28;20100;-84
2022/10/24 10:54:39;;;;;;;8.48;1.80;;;18.40;99.90;;;;;;5093436;28;20028;-82
2022/10/24 10:57:18;;;;;;;7.20;1.40;;;18.40;99.90;;;;;;5094846;28;20050;-82
2022/10/24 11:00:02;;;;;;;5.28;1.45;;;18.30;99.90;;;;;;5097643;28;20035;-85
2022/10/24 11:02:47;;;;;;;7.15;2.00;;;18.30;99.90;;;;;;5097557;28;20024;-84
2022/10/24 11:05:22;;;;;;;5.50;1.70;;;18.30;99.90;;;;;;5094963;28;20042;-84
2022/10/24 11:08:19;;;;;;;5.32;1.35;;;18.40;99.90;;;;;;5093451;28;20058;-83
2022/10/24 11:10:55;;;;;;;5.60;1.92;;;18.50;99.90;;;;;;5102296;28;20027;-83
2022/10/24 11:13:31;;;;;;;6.55;1.75;;;18.50;99.90;;;;;;5097504;28;20075;-82
2022/10/24 11:16:01;;;;;;;9.48;1.60;;;18.50;99.90;;;;;;5093141;28;20079;-84
2022/10/24 11:18:34;;;;;;;7.00;1.45;;;18.60;99.90;;;;;;5080842;28;20044;-83
2022/10/24 11:21:07;;;;;;;4.75;2.25;;;18.70;99.90;;;;;;5092750;28;20027;-83
2022/10/24 11:23:36;;;;;;;7.85;1.50;;;18.70;99.90;;;;;;5097402;28;20031;-82
2022/10/24 11:26:18;;;;;;;4.15;1.65;;;18.70;99.90;;;;;;5076646;28;20510;-83
2022/10/24 11:28:48;;;;;;;5.78;1.48;;;18.80;99.90;;;;;;5077334;28;20110;-83
2022/10/24 11:31:22;;;;;;;7.65;1.38;;;18.80;99.90;;;;;;5112464;28;20087;-83
2022/10/24 11:34:06;;;;;;;6.38;1.52;;;18.90;99.90;;;;;;5095679;28;20115;-82
2022/10/24 11:36:40;;;;;;;5.70;1.45;;;19.00;99.90;;;;;;5086733;28;20036;-83
2022/10/24 11:39:12;;;;;;;6.15;1.52;;;19.00;99.90;;;;;;5096789;28;20067;-83
2022/10/24 11:41:44;;;;;;;;;;;19.10;99.90;;;;;;5093543;28;20020;-83
2022/10/24 11:44:35;;;;;;;5.63;1.42;;;19.10;99.90;;;;;;5096548;28;19907;-83
2022/10/24 11:47:23;;;;;;;3.58;1.15;;;19.10;99.90;;;;;;5052631;28;20027;-82
2022/10/24 11:50:05;;;;;;;8.15;2.42;;;19.20;99.90;;;;;;5088000;28;20028;-83
2022/10/24 11:52:37;;;;;;;5.85;1.38;;;19.20;99.90;;;;;;5094786;28;20419;-83
2022/10/24 11:55:30;;;;;;;10.80;1.45;;;19.20;99.90;;;;;;5093013;28;20088;-83
2022/10/24 11:57:58;;;;;;;7.03;2.00;;;19.20;99.90;;;;;;5094610;28;20027;-82
2022/10/24 12:00:30;;;;;;;5.30;1.52;;;19.20;99.90;;;;;;5089363;28;20050;-83
2022/10/24 12:03:14;;;;;;;7.75;1.48;;;19.30;99.90;;;;;;5087208;28;20038;-81
2022/10/24 12:05:58;;;;;;;4.07;1.60;;;19.40;99.90;;;;;;5091831;28;20043;-83
2022/10/24 12:08:46;;;;;;;6.43;1.45;;;19.60;99.90;;;;;;5093392;28;20135;-83
2022/10/24 12:11:24;;;;;;;4.97;1.50;;;19.60;99.90;;;;;;5114267;28;20023;-82
2022/10/24 12:14:20;;;;;;;8.80;1.52;;;19.90;99.90;;;;;;5087336;28;20031;-84
2022/10/24 12:17:12;;;;;;;7.93;1.48;;;20.00;99.90;;;;;;5108214;28;20102;-85
2022/10/24 12:19:39;;;;;;;5.18;1.50;;;20.20;99.90;;;;;;5076607;28;20058;-83
2022/10/24 12:22:06;;;;;;;6.38;1.33;;;20.50;99.90;;;;;;5091804;28;20457;-82
2022/10/24 12:24:35;;;;;;;8.02;1.63;;;20.80;99.90;;;;;;5086181;28;20038;-83
2022/10/24 12:27:02;;;;;;;4.45;1.38;;;21.20;99.90;;;;;;5105249;28;20019;-82
2022/10/24 12:29:33;;;;;;;8.55;1.80;;;21.40;99.90;;;;;;5113943;28;20067;-83
2022/10/24 12:32:20;;;;;;;9.27;1.38;;;21.40;99.90;;;;;;5095656;28;20023;-84
2022/10/24 12:34:57;;;;;;;4.68;1.50;;;21.60;99.90;;;;;;5083428;28;20119;-85
2022/10/24 12:37:24;;;;;;;4.28;1.50;;;22.00;99.90;;;;;;5095781;28;20039;-85
2022/10/24 12:39:51;;;;;;;6.28;1.63;;;22.50;99.90;;;;;;5095381;28;20023;-87
2022/10/24 12:42:23;;;;;;;5.43;1.45;;;23.00;99.90;;;;;;5090447;28;20469;-86
2022/10/24 12:44:49;;;;;;;;;;;23.40;99.90;;;;;;5095585;28;20106;-86
2022/10/24 12:48:02;;;;;;;5.75;1.48;;;23.30;99.90;;;;;;5094360;28;19969;-86
2022/10/24 12:50:28;;;;;;;11.98;1.33;;;23.80;99.90;;;;;;5092793;28;20103;-85
2022/10/24 12:53:05;;;;;;;4.35;1.50;;;24.30;99.90;;;;;;5095713;28;20044;-83
2022/10/24 12:55:36;;;;;;;8.98;1.60;;;24.70;99.90;;;;;;5095303;28;20488;-85
2022/10/24 12:58:28;;;;;;;4.90;1.45;;;24.80;99.90;;;;;;5095043;28;20030;-84
2022/10/24 13:00:53;;;;;;;5.35;1.52;;;25.20;99.10;;;;;;5079299;28;20086;-81
2022/10/24 13:03:55;;;;;;;7.60;1.48;;;25.70;99.40;;;;;;5106840;28;20028;-88
2022/10/24 13:06:21;;;;;;;10.13;1.73;;;26.20;97.30;;;;;;5093534;28;20061;-85